createdAt,value
2022-09-12T00:01:51.724Z,23.95
2022-09-12T00:04:22.520Z,23.94
2022-09-12T00:06:53.871Z,23.93
2022-09-12T00:09:24.613Z,23.92
2022-09-12T00:11:55.253Z,23.92
2022-09-12T00:14:25.990Z,23.92
2022-09-12T00:17:00.700Z,23.91
2022-09-12T00:19:31.946Z,23.91
2022-09-12T00:22:02.655Z,23.89
2022-09-12T00:24:34.530Z,23.86
2022-09-12T00:27:05.626Z,23.83
2022-09-12T00:29:36.550Z,23.83
2022-09-12T00:32:07.346Z,23.80
2022-09-12T00:34:38.916Z,23.81
2022-09-12T00:37:09.557Z,23.80
2022-09-12T00:39:40.456Z,23.80
2022-09-12T00:42:13.303Z,23.80
2022-09-12T00:44:52.923Z,23.81
2022-09-12T00:47:24.611Z,23.80
2022-09-12T00:50:02.543Z,23.77
2022-09-12T00:52:38.337Z,23.76
2022-09-12T00:55:14.278Z,23.74
2022-09-12T00:57:51.407Z,23.72
2022-09-12T01:00:24.264Z,23.72
2022-09-12T01:02:58.606Z,23.72
2022-09-12T01:05:31.826Z,23.70
2022-09-12T01:08:04.797Z,23.69
2022-09-12T01:10:38.816Z,23.69
2022-09-12T01:13:11.391Z,23.71
2022-09-12T01:15:42.848Z,23.70
2022-09-12T01:18:26.084Z,23.70
2022-09-12T01:21:17.104Z,23.69
2022-09-12T01:24:34.951Z,23.67
2022-09-12T01:27:45.487Z,23.66
2022-09-12T01:30:45.960Z,23.66
2022-09-12T01:33:36.021Z,23.66
2022-09-12T01:36:35.074Z,23.67
2022-09-12T01:39:12.026Z,23.67
2022-09-12T01:41:54.563Z,23.68
2022-09-12T01:44:36.439Z,23.67
2022-09-12T01:47:11.190Z,23.67
2022-09-12T01:49:52.081Z,23.68
2022-09-12T01:52:27.813Z,23.66
2022-09-12T01:55:06.552Z,23.67
2022-09-12T01:57:45.792Z,23.66
2022-09-12T02:00:17.451Z,23.67
2022-09-12T02:02:53.198Z,23.68
2022-09-12T02:05:30.281Z,23.67
2022-09-12T02:08:08.208Z,23.68
2022-09-12T02:10:47.621Z,23.68
2022-09-12T02:13:25.037Z,23.66
2022-09-12T02:16:00.468Z,23.64
2022-09-12T02:18:34.555Z,23.64
2022-09-12T02:21:09.104Z,23.62
2022-09-12T02:23:43.612Z,23.61
2022-09-12T02:26:21.724Z,23.62
2022-09-12T02:28:52.802Z,23.63
2022-09-12T02:31:28.860Z,23.64
2022-09-12T02:34:10.402Z,23.63
2022-09-12T02:36:51.183Z,23.64
2022-09-12T02:39:22.032Z,23.66
2022-09-12T02:41:54.870Z,23.68
2022-09-12T02:44:28.204Z,23.68
2022-09-12T02:47:04.576Z,23.67
2022-09-12T02:49:35.732Z,23.67
2022-09-12T02:52:07.019Z,23.67
2022-09-12T02:54:38.307Z,23.65
2022-09-12T02:57:22.387Z,23.64
2022-09-12T02:59:57.196Z,23.62
2022-09-12T03:02:39.168Z,23.62
2022-09-12T03:05:26.023Z,23.61
2022-09-12T03:08:22.722Z,23.60
2022-09-12T03:11:09.948Z,23.58
2022-09-12T03:13:52.543Z,23.56
2022-09-12T03:16:30.821Z,23.56
2022-09-12T03:19:10.828Z,23.55
2022-09-12T03:21:54.141Z,23.55
2022-09-12T03:24:33.035Z,23.55
2022-09-12T03:27:11.362Z,23.54
2022-09-12T03:29:44.801Z,23.58
2022-09-12T03:32:15.704Z,23.68
2022-09-12T03:34:46.648Z,23.77
2022-09-12T03:37:17.427Z,23.89
2022-09-12T03:39:48.140Z,23.99
2022-09-12T03:42:19.097Z,24.05
2022-09-12T03:44:49.803Z,24.08
2022-09-12T03:47:20.542Z,24.16
2022-09-12T03:49:52.620Z,24.22
2022-09-12T03:52:23.373Z,24.26
2022-09-12T03:54:54.603Z,24.29
2022-09-12T03:57:25.212Z,24.31
2022-09-12T03:59:55.869Z,24.32
2022-09-12T04:02:26.755Z,24.33
2022-09-12T04:04:57.651Z,24.36
2022-09-12T04:07:28.596Z,24.39
2022-09-12T04:09:59.279Z,24.42
2022-09-12T04:12:30.182Z,24.44
2022-09-12T04:15:00.910Z,24.45
2022-09-12T04:17:31.855Z,24.47
2022-09-12T04:20:02.677Z,24.50
2022-09-12T04:22:33.944Z,24.54
2022-09-12T04:25:05.373Z,24.56
2022-09-12T04:27:36.766Z,24.58
2022-09-12T04:30:09.809Z,24.59
2022-09-12T04:32:41.604Z,24.59
2022-09-12T04:35:14.093Z,24.58
2022-09-12T04:37:44.750Z,24.58
2022-09-12T04:40:15.677Z,24.56
2022-09-12T04:42:46.499Z,24.55
2022-09-12T04:45:17.193Z,24.53
2022-09-12T04:47:47.825Z,24.52
2022-09-12T04:50:18.737Z,24.51
2022-09-12T04:52:54.049Z,24.50
2022-09-12T04:55:26.262Z,24.50
2022-09-12T04:57:56.871Z,24.51
2022-09-12T05:00:27.808Z,24.50
2022-09-12T05:02:58.549Z,24.49
2022-09-12T05:05:29.255Z,24.50
2022-09-12T05:07:59.969Z,24.50
2022-09-12T05:10:31.372Z,24.51
2022-09-12T05:13:02.317Z,24.52
2022-09-12T05:15:33.138Z,24.51
2022-09-12T05:18:03.800Z,24.51
2022-09-12T05:20:35.863Z,24.51
2022-09-12T05:23:06.508Z,24.51
2022-09-12T05:25:37.120Z,24.50
2022-09-12T05:28:07.842Z,24.49
2022-09-12T05:30:38.604Z,24.48
2022-09-12T05:33:09.370Z,24.48
2022-09-12T05:35:40.486Z,24.48
2022-09-12T05:38:11.176Z,24.48
2022-09-12T05:40:41.818Z,24.49
2022-09-12T05:43:13.323Z,24.48
2022-09-12T05:45:44.200Z,24.48
2022-09-12T05:48:14.927Z,24.48
2022-09-12T05:50:46.313Z,24.47
2022-09-12T05:53:17.445Z,24.47
2022-09-12T05:55:48.065Z,24.47
2022-09-12T05:58:18.983Z,24.47
2022-09-12T06:00:49.918Z,24.46
2022-09-12T06:03:21.067Z,24.47
2022-09-12T06:05:51.677Z,24.46
2022-09-12T06:08:22.685Z,24.46
2022-09-12T06:10:53.299Z,24.45
2022-09-12T06:13:24.396Z,24.45
2022-09-12T06:15:55.526Z,24.44
2022-09-12T06:18:26.231Z,24.44
2022-09-12T06:20:56.866Z,24.44
2022-09-12T06:23:27.994Z,24.46
2022-09-12T06:25:58.633Z,24.47
2022-09-12T06:28:30.109Z,24.48
2022-09-12T06:31:07.469Z,24.45
2022-09-12T06:33:39.748Z,24.48
2022-09-12T06:36:13.362Z,24.48
2022-09-12T06:38:44.165Z,24.47
2022-09-12T06:41:16.156Z,24.47
2022-09-12T06:43:46.794Z,24.48
2022-09-12T06:46:17.793Z,24.49
2022-09-12T06:48:48.899Z,24.48
2022-09-12T06:51:21.281Z,24.47
2022-09-12T06:53:52.715Z,24.48
2022-09-12T06:56:25.195Z,24.48
2022-09-12T06:58:57.380Z,24.47
2022-09-12T07:01:29.672Z,24.48
2022-09-12T07:04:02.316Z,24.47
2022-09-12T07:06:37.016Z,24.48
2022-09-12T07:09:10.075Z,24.47
2022-09-12T07:11:43.330Z,24.47
2022-09-12T07:14:15.540Z,24.47
2022-09-12T07:16:46.467Z,24.47
2022-09-12T07:19:17.191Z,24.47
2022-09-12T07:21:50.264Z,24.46
2022-09-12T07:24:20.912Z,24.48
2022-09-12T07:26:51.647Z,24.48
2022-09-12T07:29:38.192Z,24.49
2022-09-12T07:32:09.374Z,24.50
2022-09-12T07:34:40.350Z,24.51
2022-09-12T07:37:11.025Z,24.50
2022-09-12T07:39:41.858Z,24.49
2022-09-12T07:42:13.288Z,24.50
2022-09-12T07:44:44.565Z,24.51
2022-09-12T07:47:15.461Z,24.51
2022-09-12T07:49:46.210Z,24.50
2022-09-12T07:52:16.841Z,24.50
2022-09-12T07:54:47.878Z,24.51
2022-09-12T07:57:18.657Z,24.52
2022-09-12T07:59:52.994Z,24.53
2022-09-12T08:02:24.140Z,24.55
2022-09-12T08:04:54.866Z,24.60
2022-09-12T08:07:25.976Z,24.63
2022-09-12T08:09:57.031Z,24.64
2022-09-12T08:12:28.485Z,24.66
2022-09-12T08:14:59.314Z,24.67
2022-09-12T08:17:30.656Z,24.68
2022-09-12T08:20:01.564Z,24.71
2022-09-12T08:22:33.224Z,24.73
2022-09-12T08:25:04.239Z,24.75
2022-09-12T08:27:34.950Z,24.77
2022-09-12T08:30:06.857Z,24.79
2022-09-12T08:32:38.719Z,24.81
2022-09-12T08:35:11.075Z,24.82
2022-09-12T08:37:41.742Z,24.84
2022-09-12T08:40:19.071Z,24.86
2022-09-12T08:43:01.765Z,24.88
2022-09-12T08:45:39.624Z,24.90
2022-09-12T08:48:13.909Z,24.90
2022-09-12T08:50:49.823Z,24.92
2022-09-12T08:53:24.488Z,24.91
2022-09-12T08:55:59.406Z,24.93
2022-09-12T08:58:36.911Z,24.93
2022-09-12T09:01:13.952Z,24.92
2022-09-12T09:04:06.027Z,24.95
2022-09-12T09:06:56.788Z,24.96
2022-09-12T09:09:36.553Z,24.99
2022-09-12T09:12:13.745Z,25.03
2022-09-12T09:15:14.825Z,25.06
2022-09-12T09:17:49.989Z,25.05
2022-09-12T09:20:30.133Z,25.05
2022-09-12T09:23:08.476Z,25.06
2022-09-12T09:25:50.244Z,25.08
2022-09-12T09:28:26.779Z,25.09
2022-09-12T09:30:57.721Z,25.08
2022-09-12T09:33:34.289Z,25.09
2022-09-12T09:36:18.287Z,25.08
2022-09-12T09:38:54.318Z,25.08
2022-09-12T09:41:43.917Z,25.06
2022-09-12T09:44:15.085Z,25.06
2022-09-12T09:46:45.915Z,25.05
2022-09-12T09:49:18.182Z,25.07
2022-09-12T09:51:49.512Z,25.07
2022-09-12T09:54:26.043Z,25.07
2022-09-12T09:56:57.351Z,25.06
2022-09-12T09:59:32.196Z,25.07
2022-09-12T10:02:23.253Z,25.09
2022-09-12T10:04:59.516Z,25.09
2022-09-12T10:07:30.343Z,25.09
2022-09-12T10:10:19.375Z,25.10
2022-09-12T10:12:50.286Z,25.13
2022-09-12T10:15:23.055Z,25.17
2022-09-12T10:17:55.547Z,25.21
2022-09-12T10:20:39.140Z,25.21
2022-09-12T10:23:31.504Z,25.22
2022-09-12T10:26:04.326Z,25.25
2022-09-12T10:28:39.415Z,25.22
2022-09-12T10:31:15.151Z,25.26
2022-09-12T10:33:52.896Z,25.26
2022-09-12T10:36:24.812Z,25.24
2022-09-12T10:38:59.234Z,25.23
2022-09-12T10:41:39.942Z,25.24
2022-09-12T10:44:16.346Z,25.25
2022-09-12T10:46:47.393Z,25.26
2022-09-12T10:49:24.618Z,25.25
2022-09-12T10:51:56.868Z,25.23
2022-09-12T10:54:29.716Z,25.23
2022-09-12T10:57:17.081Z,25.24
2022-09-12T11:00:05.352Z,25.25
2022-09-12T11:02:49.733Z,25.27
2022-09-12T11:05:36.943Z,25.28
2022-09-12T11:08:20.251Z,25.27
2022-09-12T11:10:59.953Z,25.25
2022-09-12T11:13:54.304Z,25.25
2022-09-12T11:16:35.849Z,25.25
2022-09-12T11:19:22.003Z,25.26
2022-09-12T11:22:09.579Z,25.26
2022-09-12T11:25:08.918Z,25.25
2022-09-12T11:27:56.189Z,25.25
2022-09-12T11:30:27.938Z,25.27
2022-09-12T11:33:16.093Z,25.32
2022-09-12T11:35:55.281Z,25.31
2022-09-12T11:38:30.970Z,25.31
2022-09-12T11:41:05.000Z,25.27
2022-09-12T11:43:40.941Z,25.28
2022-09-12T11:46:19.283Z,25.29
2022-09-12T11:48:57.967Z,25.30
2022-09-12T11:51:31.956Z,25.25
2022-09-12T11:54:13.131Z,25.28
2022-09-12T11:56:46.600Z,25.29
2022-09-12T11:59:19.762Z,25.29
2022-09-12T12:01:56.487Z,25.29
2022-09-12T12:04:35.919Z,25.33
2022-09-12T12:07:08.687Z,25.34
2022-09-12T12:09:47.347Z,25.35
2022-09-12T12:12:24.922Z,25.36
2022-09-12T12:14:57.811Z,25.38
2022-09-12T12:17:29.829Z,25.32
2022-09-12T12:20:08.156Z,25.30
2022-09-12T12:22:52.027Z,25.27
2022-09-12T12:25:42.702Z,25.26
2022-09-12T12:28:34.864Z,25.26
2022-09-12T12:31:06.019Z,25.25
2022-09-12T12:33:55.844Z,25.26
2022-09-12T12:36:44.605Z,25.26
2022-09-12T12:40:05.837Z,25.27
2022-09-12T12:43:06.230Z,25.26
2022-09-12T12:46:04.595Z,25.27
2022-09-12T12:48:45.756Z,25.28
2022-09-12T12:51:36.562Z,25.31
2022-09-12T12:54:28.455Z,25.32
2022-09-12T12:57:16.790Z,25.32
2022-09-12T12:59:52.949Z,25.33
2022-09-12T13:02:30.416Z,25.33
2022-09-12T13:05:04.106Z,25.34
2022-09-12T13:07:38.389Z,25.35
2022-09-12T13:10:23.335Z,25.38
2022-09-12T13:12:54.921Z,25.40
2022-09-12T13:15:50.596Z,25.42
2022-09-12T13:18:27.883Z,25.42
2022-09-12T13:21:10.318Z,25.42
2022-09-12T13:23:41.360Z,25.42
2022-09-12T13:26:22.009Z,25.43
2022-09-12T13:29:09.961Z,25.41
2022-09-12T13:31:45.367Z,25.41
2022-09-12T13:34:22.192Z,25.43
2022-09-12T13:37:11.454Z,25.44
2022-09-12T13:39:49.726Z,25.43
2022-09-12T13:42:40.945Z,25.43
2022-09-12T13:45:20.719Z,25.42
2022-09-12T13:47:58.478Z,25.42
2022-09-12T13:50:32.994Z,25.42
2022-09-12T13:53:08.381Z,25.43
2022-09-12T13:55:41.762Z,25.43
2022-09-12T13:58:21.152Z,25.43
2022-09-12T14:01:03.870Z,25.41
2022-09-12T14:03:58.929Z,25.44
2022-09-12T14:06:29.925Z,25.45
2022-09-12T14:09:02.543Z,25.46
2022-09-12T14:11:35.010Z,25.47
2022-09-12T14:14:19.886Z,25.47
2022-09-12T14:16:54.908Z,25.46
2022-09-12T14:19:29.378Z,25.47
2022-09-12T14:22:02.262Z,25.47
2022-09-12T14:24:33.535Z,25.43
2022-09-12T14:27:05.741Z,25.43
2022-09-12T14:29:36.573Z,25.43
2022-09-12T14:32:18.691Z,25.46
2022-09-12T14:35:19.458Z,25.48
2022-09-12T14:37:53.163Z,25.50
2022-09-12T14:40:25.092Z,25.51
2022-09-12T14:43:01.027Z,25.50
2022-09-12T14:45:33.649Z,25.47
2022-09-12T14:48:05.672Z,25.45
2022-09-12T14:50:38.248Z,25.46
2022-09-12T14:53:24.959Z,25.49
2022-09-12T14:56:00.940Z,25.53
2022-09-12T14:58:33.399Z,25.57
2022-09-12T15:01:22.494Z,25.60
2022-09-12T15:03:56.539Z,25.61
2022-09-12T15:06:31.507Z,25.63
2022-09-12T15:09:04.411Z,25.65
2022-09-12T15:11:35.300Z,25.67
2022-09-12T15:14:15.806Z,25.69
2022-09-12T15:16:46.624Z,25.71
2022-09-12T15:19:17.922Z,25.72
2022-09-12T15:21:48.840Z,25.73
2022-09-12T15:24:19.842Z,25.72
2022-09-12T15:26:51.324Z,25.72
2022-09-12T15:29:22.738Z,25.74
2022-09-12T15:31:54.223Z,25.75
2022-09-12T15:34:25.043Z,25.76
2022-09-12T15:36:56.011Z,25.77
2022-09-12T15:39:27.592Z,25.77
2022-09-12T15:41:58.725Z,25.79
2022-09-12T15:44:29.553Z,25.80
2022-09-12T15:47:00.387Z,25.81
2022-09-12T15:49:31.238Z,25.81
2022-09-12T15:52:02.613Z,25.80
2022-09-12T15:54:33.528Z,25.81
2022-09-12T15:57:04.370Z,25.82
2022-09-12T15:59:35.312Z,25.84
2022-09-12T16:02:06.322Z,25.84
2022-09-12T16:04:37.332Z,25.85
2022-09-12T16:07:08.347Z,25.84
2022-09-12T16:09:39.650Z,25.85
2022-09-12T16:12:10.569Z,25.86
2022-09-12T16:14:41.307Z,25.86
2022-09-12T16:17:13.259Z,25.88
2022-09-12T16:19:44.184Z,25.88
2022-09-12T16:22:15.130Z,25.87
2022-09-12T16:24:45.883Z,25.87
2022-09-12T16:27:17.745Z,25.88
2022-09-12T16:29:48.689Z,25.87
2022-09-12T16:32:19.612Z,25.88
2022-09-12T16:34:51.013Z,25.87
2022-09-12T16:37:22.058Z,25.87
2022-09-12T16:39:52.785Z,25.87
2022-09-12T16:42:23.608Z,25.87
2022-09-12T16:44:54.332Z,25.87
2022-09-12T16:47:25.193Z,25.86
2022-09-12T16:49:56.009Z,25.87
2022-09-12T16:52:26.853Z,25.88
2022-09-12T16:54:57.710Z,25.87
2022-09-12T16:57:28.538Z,25.86
2022-09-12T16:59:59.474Z,25.86
2022-09-12T17:02:30.260Z,25.87
2022-09-12T17:05:01.297Z,25.84
2022-09-12T17:07:32.115Z,25.85
2022-09-12T17:10:02.937Z,25.85
2022-09-12T17:12:33.573Z,25.81
2022-09-12T17:15:05.109Z,25.85
2022-09-12T17:17:35.983Z,25.87
2022-09-12T17:20:07.813Z,25.88
2022-09-12T17:22:38.593Z,25.88
2022-09-12T17:25:11.120Z,25.88
2022-09-12T17:27:42.037Z,25.88
2022-09-12T17:30:14.878Z,25.85
2022-09-12T17:32:45.539Z,25.81
2022-09-12T17:35:16.732Z,25.76
2022-09-12T17:37:47.774Z,25.72
2022-09-12T17:40:19.086Z,25.70
2022-09-12T17:42:50.322Z,25.69
2022-09-12T17:45:21.409Z,25.68
2022-09-12T17:47:52.590Z,25.68
2022-09-12T17:50:32.459Z,25.65
2022-09-12T17:53:05.238Z,25.63
2022-09-12T17:55:39.568Z,25.62
2022-09-12T17:58:11.036Z,25.61
2022-09-12T18:00:59.489Z,25.62
2022-09-12T18:03:30.270Z,25.60
2022-09-12T18:06:01.077Z,25.60
2022-09-12T18:08:31.768Z,25.60
2022-09-12T18:11:08.498Z,25.61
2022-09-12T18:13:39.544Z,25.59
2022-09-12T18:16:12.509Z,25.58
2022-09-12T18:18:43.937Z,25.58
2022-09-12T18:21:15.053Z,25.58
2022-09-12T18:23:45.964Z,25.58
2022-09-12T18:26:17.128Z,25.57
2022-09-12T18:28:47.929Z,25.57
2022-09-12T18:31:21.184Z,25.58
2022-09-12T18:33:52.659Z,25.57
2022-09-12T18:36:23.997Z,25.57
2022-09-12T18:38:54.850Z,25.55
2022-09-12T18:41:26.927Z,25.54
2022-09-12T18:43:59.997Z,25.53
2022-09-12T18:46:33.014Z,25.53
2022-09-12T18:49:05.080Z,25.54
2022-09-12T18:51:40.197Z,25.54
2022-09-12T18:54:15.696Z,25.53
2022-09-12T18:56:47.763Z,25.53
2022-09-12T18:59:19.065Z,25.53
2022-09-12T19:01:50.411Z,25.52
2022-09-12T19:04:21.370Z,25.52
2022-09-12T19:06:52.215Z,25.52
2022-09-12T19:09:23.872Z,25.51
2022-09-12T19:11:54.864Z,25.52
2022-09-12T19:14:27.466Z,25.53
2022-09-12T19:16:58.443Z,25.53
2022-09-12T19:19:29.350Z,25.53
2022-09-12T19:22:01.420Z,25.53
2022-09-12T19:24:32.290Z,25.53
2022-09-12T19:27:03.209Z,25.54
2022-09-12T19:29:34.158Z,25.55
2022-09-12T19:32:05.853Z,25.55
2022-09-12T19:34:36.546Z,25.54
2022-09-12T19:37:07.620Z,25.53
2022-09-12T19:39:38.288Z,25.52
2022-09-12T19:42:09.482Z,25.53
2022-09-12T19:44:40.244Z,25.52
2022-09-12T19:47:11.394Z,25.52
2022-09-12T19:49:42.543Z,25.51
2022-09-12T19:52:16.877Z,25.50
2022-09-12T19:54:48.559Z,25.49
2022-09-12T19:57:19.359Z,25.47
2022-09-12T19:59:50.245Z,25.47
2022-09-12T20:02:21.010Z,25.46
2022-09-12T20:04:51.979Z,25.45
2022-09-12T20:07:22.856Z,25.46
2022-09-12T20:09:55.151Z,25.46
2022-09-12T20:12:26.162Z,25.45
2022-09-12T20:14:57.134Z,25.45
2022-09-12T20:17:28.232Z,25.45
2022-09-12T20:19:59.086Z,25.44
2022-09-12T20:22:30.061Z,25.41
2022-09-12T20:25:01.060Z,25.44
2022-09-12T20:27:31.897Z,25.42
2022-09-12T20:30:02.777Z,25.41
2022-09-12T20:32:33.682Z,25.40
2022-09-12T20:35:04.726Z,25.40
2022-09-12T20:37:36.033Z,25.40
2022-09-12T20:40:08.621Z,25.40
2022-09-12T20:42:39.901Z,25.40
2022-09-12T20:45:11.919Z,25.40
2022-09-12T20:47:42.591Z,25.39
2022-09-12T20:50:14.684Z,25.40
2022-09-12T20:52:45.459Z,25.41
2022-09-12T20:55:16.366Z,25.40
2022-09-12T20:57:47.104Z,25.40
2022-09-12T21:00:18.733Z,25.40
2022-09-12T21:02:50.857Z,25.40
2022-09-12T21:05:21.872Z,25.40
2022-09-12T21:07:52.620Z,25.40
2022-09-12T21:10:23.278Z,25.40
2022-09-12T21:12:54.805Z,25.39
2022-09-12T21:15:25.462Z,25.39
2022-09-12T21:17:56.483Z,25.38
2022-09-12T21:20:27.222Z,25.38
2022-09-12T21:22:57.926Z,25.38
2022-09-12T21:25:29.213Z,25.37
2022-09-12T21:27:59.926Z,25.38
2022-09-12T21:30:30.746Z,25.38
2022-09-12T21:33:01.431Z,25.39
2022-09-12T21:35:32.165Z,25.37
2022-09-12T21:38:02.870Z,25.35
2022-09-12T21:40:33.946Z,25.31
2022-09-12T21:43:08.113Z,25.29
2022-09-12T21:45:41.555Z,25.28
2022-09-12T21:48:12.311Z,25.25
2022-09-12T21:50:43.042Z,25.23
2022-09-12T21:53:13.797Z,25.20
2022-09-12T21:55:44.728Z,25.17
2022-09-12T21:58:15.485Z,25.14
2022-09-12T22:00:46.670Z,25.13
2022-09-12T22:03:18.164Z,25.11
2022-09-12T22:05:57.450Z,25.08
2022-09-12T22:08:28.694Z,25.07
2022-09-12T22:11:02.298Z,25.05
2022-09-12T22:13:33.859Z,25.03
2022-09-12T22:16:05.231Z,25.01
2022-09-12T22:18:36.956Z,24.98
2022-09-12T22:21:09.852Z,24.97
2022-09-12T22:23:58.635Z,24.95
2022-09-12T22:26:29.589Z,24.91
2022-09-12T22:29:01.153Z,24.90
2022-09-12T22:31:32.115Z,24.86
2022-09-12T22:34:03.589Z,24.80
2022-09-12T22:36:38.256Z,24.66
2022-09-12T22:39:10.062Z,24.50
2022-09-12T22:41:40.881Z,24.34
2022-09-12T22:44:12.317Z,24.15
2022-09-12T22:46:43.313Z,23.97
2022-09-12T22:49:14.234Z,23.86
2022-09-12T22:51:44.960Z,23.78
2022-09-12T22:54:15.962Z,23.73
2022-09-12T22:56:47.050Z,23.69
2022-09-12T22:59:18.442Z,23.63
2022-09-12T23:01:49.606Z,23.55
2022-09-12T23:04:20.312Z,23.52
2022-09-12T23:06:51.134Z,23.50
2022-09-12T23:09:22.031Z,23.51
2022-09-12T23:11:53.065Z,23.49
2022-09-12T23:14:23.693Z,23.47
2022-09-12T23:16:54.476Z,23.43
2022-09-12T23:19:25.200Z,23.40
2022-09-12T23:21:56.278Z,23.37
2022-09-12T23:24:27.094Z,23.34
2022-09-12T23:26:57.711Z,23.31
2022-09-12T23:29:28.897Z,23.29
2022-09-12T23:31:59.637Z,23.25
2022-09-12T23:34:31.089Z,23.19
2022-09-12T23:37:01.827Z,23.12
2022-09-12T23:39:32.872Z,23.08
2022-09-12T23:42:03.715Z,23.04
2022-09-12T23:44:34.657Z,22.99
2022-09-12T23:47:05.601Z,22.95
2022-09-12T23:49:36.245Z,22.92
2022-09-12T23:52:07.349Z,22.90
2022-09-12T23:54:38.015Z,22.86
2022-09-12T23:57:08.858Z,22.82
2022-09-12T23:59:39.450Z,22.78
